SILO ALERT LOG
| Silo ID | Alert Type | Alert Message | Silo Type | Points | Depth (mm) | Strength | Temperature (°C) | Humidity (%) | Height (mm) | Volume (㎥) | Weight (t) | Flag | Time |
|---|---|---|---|---|---|---|---|---|---|---|---|---|---|
| WJWJR01 | Humidity | 습도센서 측정값이 80% 초과 | 평 | 74 | 7520 | 1183 | 25.1 | 82.2 | 120 | 13.572 | 8.58 | 0 | 2026-07-08 04:26:00.000 |
| WJWJR01 | Humidity | 습도센서 측정값이 80% 초과 | 평 | 73 | 7580 | 1185 | 25.4 | 81.9 | 59 | 6.786 | 4.29 | 0 | 2026-07-08 03:25:58.000 |
| WJWJR01 | Humidity | 습도센서 측정값이 80% 초과 | 평 | 75 | 7510 | 1234 | 25.8 | 81.4 | 129 | 14.703 | 9.295 | 0 | 2026-07-08 02:26:01.000 |
| WJWJR01 | Humidity | 습도센서 측정값이 80% 초과 | 평 | 74 | 7500 | 1224 | 26.1 | 80.7 | 139 | 15.834 | 10.01 | 0 | 2026-07-08 01:26:02.000 |
| WJWJR01 | Humidity | 습도센서 측정값이 80% 초과 | 평 | 72 | 7510 | 1244 | 26.6 | 80.2 | 129 | 14.703 | 9.295 | 0 | 2026-07-08 00:26:00.000 |
| WJWJR01 | Humidity | 습도센서 측정값이 80% 초과 | 평 | 74 | 7520 | 1204 | 29.1 | 84.5 | 120 | 13.572 | 8.58 | 0 | 2026-07-07 12:26:03.000 |
| WJWJR01 | Humidity | 습도센서 측정값이 80% 초과 | 평 | 74 | 7500 | 1231 | 27.1 | 87.5 | 139 | 15.834 | 10.01 | 0 | 2026-07-07 11:25:59.000 |
| WJWJR01 | Humidity | 습도센서 측정값이 80% 초과 | 평 | 73 | 7550 | 1230 | 25.3 | 89 | 89 | 10.179 | 6.435 | 0 | 2026-07-07 10:26:01.000 |
| WJWJR01 | Humidity | 습도센서 측정값이 80% 초과 | 평 | 74 | 7550 | 1212 | 24.6 | 86.5 | 89 | 10.179 | 6.435 | 0 | 2026-07-07 09:25:59.000 |
| WJWJR01 | Humidity | 습도센서 측정값이 80% 초과 | 평 | 72 | 7510 | 1212 | 24.3 | 83.2 | 129 | 14.703 | 9.295 | 0 | 2026-07-07 08:25:58.000 |
| WJWJR01 | Humidity | 습도센서 측정값이 80% 초과 | 평 | 74 | 7540 | 1213 | 24.1 | 81.5 | 99 | 11.31 | 7.15 | 0 | 2026-07-07 07:25:58.000 |
| WJWJR01 | Humidity | 습도센서 측정값이 80% 초과 | 평 | 78 | 7490 | 1206 | 24.3 | 81.7 | 149 | 16.965 | 10.725 | 0 | 2026-07-07 06:26:02.000 |
| WJWJR01 | Humidity | 습도센서 측정값이 80% 초과 | 평 | 73 | 7500 | 1216 | 24.3 | 81.8 | 139 | 15.834 | 10.01 | 0 | 2026-07-07 05:26:04.000 |
| WJWJR01 | Humidity | 습도센서 측정값이 80% 초과 | 평 | 72 | 7550 | 1242 | 24.4 | 81.9 | 89 | 10.179 | 6.435 | 0 | 2026-07-07 04:25:59.000 |
| WJWJR01 | Humidity | 습도센서 측정값이 80% 초과 | 평 | 75 | 7480 | 1197 | 24.4 | 82 | 159 | 18.096 | 11.44 | 0 | 2026-07-07 03:25:58.000 |
| WJWJR01 | Humidity | 습도센서 측정값이 80% 초과 | 평 | 78 | 7480 | 1203 | 24.5 | 82.1 | 159 | 18.096 | 11.44 | 0 | 2026-07-07 02:26:08.000 |
| WJWJR01 | Humidity | 습도센서 측정값이 80% 초과 | 평 | 73 | 7530 | 1211 | 24.7 | 82.1 | 109 | 12.441 | 7.865 | 0 | 2026-07-07 01:25:55.000 |
| WJWJR01 | Humidity | 습도센서 측정값이 80% 초과 | 평 | 72 | 7550 | 1238 | 25 | 81.8 | 89 | 10.179 | 6.435 | 0 | 2026-07-07 00:25:58.000 |
| WJWJR01 | Humidity | 습도센서 측정값이 80% 초과 | 평 | 76 | 7530 | 1246 | 25.2 | 81.4 | 109 | 12.441 | 7.865 | 0 | 2026-07-06 23:25:59.000 |
| WJWJR01 | Humidity | 습도센서 측정값이 80% 초과 | 평 | 72 | 7520 | 1208 | 25.6 | 80.6 | 120 | 13.572 | 8.58 | 0 | 2026-07-06 22:26:05.000 |
[첫 페이지] [38] [39] [40] [41] 42 [43] [44] [45] [46] [마지막 페이지]